sensor_id;sensor_type;location;lat;lon;timestamp;temperature;humidity
52481;DHT22;38393;52.404;13.532;2023-05-07T00:01:16;9.20;99.80
52481;DHT22;38393;52.404;13.532;2023-05-07T00:03:41;9.30;99.70
52481;DHT22;38393;52.404;13.532;2023-05-07T00:06:07;9.20;99.60
52481;DHT22;38393;52.404;13.532;2023-05-07T00:08:32;9.20;99.80
52481;DHT22;38393;52.404;13.532;2023-05-07T00:10:58;9.10;99.80
52481;DHT22;38393;52.404;13.532;2023-05-07T00:13:23;9.20;99.70
52481;DHT22;38393;52.404;13.532;2023-05-07T00:15:49;9.10;99.50
52481;DHT22;38393;52.404;13.532;2023-05-07T00:18:14;9.20;99.40
52481;DHT22;38393;52.404;13.532;2023-05-07T00:20:40;9.30;99.50
52481;DHT22;38393;52.404;13.532;2023-05-07T00:23:05;9.40;99.60
52481;DHT22;38393;52.404;13.532;2023-05-07T00:25:31;9.20;99.50
52481;DHT22;38393;52.404;13.532;2023-05-07T00:27:56;9.20;99.60
52481;DHT22;38393;52.404;13.532;2023-05-07T00:30:27;9.20;99.60
52481;DHT22;38393;52.404;13.532;2023-05-07T00:32:53;9.20;99.50
52481;DHT22;38393;52.404;13.532;2023-05-07T00:35:18;9.30;99.50
52481;DHT22;38393;52.404;13.532;2023-05-07T00:37:44;9.20;99.40
52481;DHT22;38393;52.404;13.532;2023-05-07T00:40:10;9.20;99.50
52481;DHT22;38393;52.404;13.532;2023-05-07T00:42:35;9.10;99.60
52481;DHT22;38393;52.404;13.532;2023-05-07T00:45:02;9.10;99.70
52481;DHT22;38393;52.404;13.532;2023-05-07T00:47:28;9.10;99.60
52481;DHT22;38393;52.404;13.532;2023-05-07T00:49:53;9.10;99.60
52481;DHT22;38393;52.404;13.532;2023-05-07T00:52:21;9.10;99.50
52481;DHT22;38393;52.404;13.532;2023-05-07T00:54:49;9.10;99.70
52481;DHT22;38393;52.404;13.532;2023-05-07T00:57:14;9.10;99.70
52481;DHT22;38393;52.404;13.532;2023-05-07T00:59:40;9.20;99.10
52481;DHT22;38393;52.404;13.532;2023-05-07T01:02:06;9.20;99.20
52481;DHT22;38393;52.404;13.532;2023-05-07T01:04:32;9.00;98.70
52481;DHT22;38393;52.404;13.532;2023-05-07T01:06:58;9.10;99.00
52481;DHT22;38393;52.404;13.532;2023-05-07T01:09:25;9.20;99.00
52481;DHT22;38393;52.404;13.532;2023-05-07T01:11:51;9.00;99.10
52481;DHT22;38393;52.404;13.532;2023-05-07T01:14:18;9.10;99.20
52481;DHT22;38393;52.404;13.532;2023-05-07T01:16:44;9.10;99.70
52481;DHT22;38393;52.404;13.532;2023-05-07T01:19:11;9.20;99.40
52481;DHT22;38393;52.404;13.532;2023-05-07T01:21:39;9.10;99.40
52481;DHT22;38393;52.404;13.532;2023-05-07T01:24:07;9.10;99.30
52481;DHT22;38393;52.404;13.532;2023-05-07T01:26:32;9.10;99.30
52481;DHT22;38393;52.404;13.532;2023-05-07T01:28:58;9.10;99.40
52481;DHT22;38393;52.404;13.532;2023-05-07T01:31:24;9.10;99.30
52481;DHT22;38393;52.404;13.532;2023-05-07T01:33:50;9.10;99.20
52481;DHT22;38393;52.404;13.532;2023-05-07T01:36:18;9.10;99.30
52481;DHT22;38393;52.404;13.532;2023-05-07T01:38:45;9.10;99.40
52481;DHT22;38393;52.404;13.532;2023-05-07T01:41:11;9.10;99.40
52481;DHT22;38393;52.404;13.532;2023-05-07T01:43:37;9.10;99.40
52481;DHT22;38393;52.404;13.532;2023-05-07T01:46:03;9.10;98.60
52481;DHT22;38393;52.404;13.532;2023-05-07T01:48:29;9.10;99.00
52481;DHT22;38393;52.404;13.532;2023-05-07T01:50:55;9.10;99.00
52481;DHT22;38393;52.404;13.532;2023-05-07T01:53:21;9.10;99.10
52481;DHT22;38393;52.404;13.532;2023-05-07T01:55:47;9.10;99.10
52481;DHT22;38393;52.404;13.532;2023-05-07T01:58:12;9.20;99.10
52481;DHT22;38393;52.404;13.532;2023-05-07T02:00:39;9.10;99.00
52481;DHT22;38393;52.404;13.532;2023-05-07T02:03:04;9.10;98.80
52481;DHT22;38393;52.404;13.532;2023-05-07T02:05:30;9.10;99.00
52481;DHT22;38393;52.404;13.532;2023-05-07T02:07:56;9.10;98.90
52481;DHT22;38393;52.404;13.532;2023-05-07T02:10:21;9.20;98.90
52481;DHT22;38393;52.404;13.532;2023-05-07T02:12:47;9.20;98.90
52481;DHT22;38393;52.404;13.532;2023-05-07T02:15:12;9.10;98.80
52481;DHT22;38393;52.404;13.532;2023-05-07T02:18:04;9.20;98.80
52481;DHT22;38393;52.404;13.532;2023-05-07T02:20:29;9.20;98.70
52481;DHT22;38393;52.404;13.532;2023-05-07T02:22:55;9.20;98.60
52481;DHT22;38393;52.404;13.532;2023-05-07T02:25:20;9.20;98.40
52481;DHT22;38393;52.404;13.532;2023-05-07T02:27:46;9.20;98.40
52481;DHT22;38393;52.404;13.532;2023-05-07T02:30:12;9.10;98.60
52481;DHT22;38393;52.404;13.532;2023-05-07T02:32:37;9.10;98.90
52481;DHT22;38393;52.404;13.532;2023-05-07T02:35:03;9.10;98.60
52481;DHT22;38393;52.404;13.532;2023-05-07T02:37:28;9.10;98.70
52481;DHT22;38393;52.404;13.532;2023-05-07T02:39:54;9.10;98.70
52481;DHT22;38393;52.404;13.532;2023-05-07T02:42:20;9.10;98.90
52481;DHT22;38393;52.404;13.532;2023-05-07T02:44:45;9.00;98.70
52481;DHT22;38393;52.404;13.532;2023-05-07T02:47:11;9.10;98.60
52481;DHT22;38393;52.404;13.532;2023-05-07T02:49:38;9.10;98.60
52481;DHT22;38393;52.404;13.532;2023-05-07T02:52:03;9.20;98.70
52481;DHT22;38393;52.404;13.532;2023-05-07T02:54:29;9.00;98.60
52481;DHT22;38393;52.404;13.532;2023-05-07T02:56:54;9.20;98.60
52481;DHT22;38393;52.404;13.532;2023-05-07T02:59:20;9.20;98.60
52481;DHT22;38393;52.404;13.532;2023-05-07T03:01:45;9.10;98.60
52481;DHT22;38393;52.404;13.532;2023-05-07T03:04:11;9.10;98.70
52481;DHT22;38393;52.404;13.532;2023-05-07T03:06:36;9.10;99.00
52481;DHT22;38393;52.404;13.532;2023-05-07T03:09:02;9.00;98.90
52481;DHT22;38393;52.404;13.532;2023-05-07T03:11:28;9.10;98.90
52481;DHT22;38393;52.404;13.532;2023-05-07T03:13:53;9.20;98.50
52481;DHT22;38393;52.404;13.532;2023-05-07T03:16:19;9.10;98.60
52481;DHT22;38393;52.404;13.532;2023-05-07T03:18:45;9.10;98.70
52481;DHT22;38393;52.404;13.532;2023-05-07T03:21:10;9.10;98.60
52481;DHT22;38393;52.404;13.532;2023-05-07T03:23:35;9.10;98.60
52481;DHT22;38393;52.404;13.532;2023-05-07T03:26:01;9.10;98.40
52481;DHT22;38393;52.404;13.532;2023-05-07T03:28:26;9.10;98.10
52481;DHT22;38393;52.404;13.532;2023-05-07T03:30:52;9.10;98.40
52481;DHT22;38393;52.404;13.532;2023-05-07T03:33:17;9.10;98.40
52481;DHT22;38393;52.404;13.532;2023-05-07T03:35:43;9.10;98.40
52481;DHT22;38393;52.404;13.532;2023-05-07T03:38:08;9.10;98.40
52481;DHT22;38393;52.404;13.532;2023-05-07T03:40:34;9.20;98.20
52481;DHT22;38393;52.404;13.532;2023-05-07T03:43:00;9.00;98.30
52481;DHT22;38393;52.404;13.532;2023-05-07T03:45:26;9.00;98.30
52481;DHT22;38393;52.404;13.532;2023-05-07T03:47:51;9.10;98.20
52481;DHT22;38393;52.404;13.532;2023-05-07T03:50:17;9.10;98.10
52481;DHT22;38393;52.404;13.532;2023-05-07T03:52:42;9.10;98.20
52481;DHT22;38393;52.404;13.532;2023-05-07T03:55:08;9.00;98.20
52481;DHT22;38393;52.404;13.532;2023-05-07T03:57:33;9.00;98.30
52481;DHT22;38393;52.404;13.532;2023-05-07T03:59:59;9.00;98.50
52481;DHT22;38393;52.404;13.532;2023-05-07T04:02:24;9.10;98.40
52481;DHT22;38393;52.404;13.532;2023-05-07T04:04:50;9.10;98.30
52481;DHT22;38393;52.404;13.532;2023-05-07T04:07:15;9.10;98.20
52481;DHT22;38393;52.404;13.532;2023-05-07T04:09:41;9.00;98.10
52481;DHT22;38393;52.404;13.532;2023-05-07T04:12:06;9.10;98.10
52481;DHT22;38393;52.404;13.532;2023-05-07T04:14:32;9.00;97.90
52481;DHT22;38393;52.404;13.532;2023-05-07T04:16:59;9.10;97.90
52481;DHT22;38393;52.404;13.532;2023-05-07T04:19:24;9.10;98.10
52481;DHT22;38393;52.404;13.532;2023-05-07T04:21:50;9.10;98.00
52481;DHT22;38393;52.404;13.532;2023-05-07T04:24:15;9.10;97.90
52481;DHT22;38393;52.404;13.532;2023-05-07T04:26:41;9.30;97.50
52481;DHT22;38393;52.404;13.532;2023-05-07T04:29:06;9.20;97.50
52481;DHT22;38393;52.404;13.532;2023-05-07T04:31:32;9.20;97.40
52481;DHT22;38393;52.404;13.532;2023-05-07T04:33:58;9.20;97.60
52481;DHT22;38393;52.404;13.532;2023-05-07T04:36:23;9.20;97.60
52481;DHT22;38393;52.404;13.532;2023-05-07T04:38:53;9.30;97.50
52481;DHT22;38393;52.404;13.532;2023-05-07T04:41:18;9.30;97.10
52481;DHT22;38393;52.404;13.532;2023-05-07T04:43:44;9.30;97.30
52481;DHT22;38393;52.404;13.532;2023-05-07T04:46:09;9.30;97.30
52481;DHT22;38393;52.404;13.532;2023-05-07T04:48:35;9.20;97.40
52481;DHT22;38393;52.404;13.532;2023-05-07T04:51:00;9.20;97.30
52481;DHT22;38393;52.404;13.532;2023-05-07T04:53:26;9.40;97.20
52481;DHT22;38393;52.404;13.532;2023-05-07T04:55:56;9.40;97.40
52481;DHT22;38393;52.404;13.532;2023-05-07T04:58:22;9.40;97.30
52481;DHT22;38393;52.404;13.532;2023-05-07T05:00:47;9.40;97.50
52481;DHT22;38393;52.404;13.532;2023-05-07T05:03:13;9.40;97.30
52481;DHT22;38393;52.404;13.532;2023-05-07T05:05:38;9.40;97.00
52481;DHT22;38393;52.404;13.532;2023-05-07T05:08:04;9.30;97.30
52481;DHT22;38393;52.404;13.532;2023-05-07T05:10:29;9.40;97.10
52481;DHT22;38393;52.404;13.532;2023-05-07T05:12:55;9.50;97.30
52481;DHT22;38393;52.404;13.532;2023-05-07T05:15:20;9.70;96.80
52481;DHT22;38393;52.404;13.532;2023-05-07T05:17:46;9.80;96.70
52481;DHT22;38393;52.404;13.532;2023-05-07T05:20:11;9.80;96.60
52481;DHT22;38393;52.404;13.532;2023-05-07T05:22:37;10.00;95.90
52481;DHT22;38393;52.404;13.532;2023-05-07T05:25:03;9.90;95.50
52481;DHT22;38393;52.404;13.532;2023-05-07T05:27:29;10.10;95.30
52481;DHT22;38393;52.404;13.532;2023-05-07T05:29:54;10.10;94.60
52481;DHT22;38393;52.404;13.532;2023-05-07T05:32:20;9.90;95.00
52481;DHT22;38393;52.404;13.532;2023-05-07T05:34:45;10.10;95.30
52481;DHT22;38393;52.404;13.532;2023-05-07T05:37:11;10.10;94.70
52481;DHT22;38393;52.404;13.532;2023-05-07T05:39:36;10.10;94.60
52481;DHT22;38393;52.404;13.532;2023-05-07T05:42:02;10.30;94.40
52481;DHT22;38393;52.404;13.532;2023-05-07T05:44:27;10.30;93.30
52481;DHT22;38393;52.404;13.532;2023-05-07T05:46:53;10.40;93.90
52481;DHT22;38393;52.404;13.532;2023-05-07T05:49:20;10.50;93.70
52481;DHT22;38393;52.404;13.532;2023-05-07T05:51:46;10.50;93.60
52481;DHT22;38393;52.404;13.532;2023-05-07T05:54:12;10.70;93.60
52481;DHT22;38393;52.404;13.532;2023-05-07T05:56:37;10.90;92.80
52481;DHT22;38393;52.404;13.532;2023-05-07T05:59:03;10.80;92.90
52481;DHT22;38393;52.404;13.532;2023-05-07T06:01:29;10.80;92.90
52481;DHT22;38393;52.404;13.532;2023-05-07T06:03:54;10.90;92.50
52481;DHT22;38393;52.404;13.532;2023-05-07T06:06:20;10.80;93.00
52481;DHT22;38393;52.404;13.532;2023-05-07T06:08:45;11.00;92.90
52481;DHT22;38393;52.404;13.532;2023-05-07T06:11:11;11.10;92.20
52481;DHT22;38393;52.404;13.532;2023-05-07T06:13:36;11.10;92.20
52481;DHT22;38393;52.404;13.532;2023-05-07T06:16:02;11.10;92.20
52481;DHT22;38393;52.404;13.532;2023-05-07T06:18:27;10.90;92.30
52481;DHT22;38393;52.404;13.532;2023-05-07T06:20:54;11.00;92.90
52481;DHT22;38393;52.404;13.532;2023-05-07T06:23:19;11.30;92.00
52481;DHT22;38393;52.404;13.532;2023-05-07T06:25:49;11.40;91.30
52481;DHT22;38393;52.404;13.532;2023-05-07T06:28:15;11.30;91.40
52481;DHT22;38393;52.404;13.532;2023-05-07T06:30:41;11.40;91.40
52481;DHT22;38393;52.404;13.532;2023-05-07T06:33:06;11.40;91.30
52481;DHT22;38393;52.404;13.532;2023-05-07T06:35:32;11.60;91.10
52481;DHT22;38393;52.404;13.532;2023-05-07T06:37:57;11.40;91.60
52481;DHT22;38393;52.404;13.532;2023-05-07T06:40:22;11.40;91.50
52481;DHT22;38393;52.404;13.532;2023-05-07T06:42:48;11.60;91.40
52481;DHT22;38393;52.404;13.532;2023-05-07T06:45:13;11.60;91.10
52481;DHT22;38393;52.404;13.532;2023-05-07T06:47:39;11.70;90.90
52481;DHT22;38393;52.404;13.532;2023-05-07T06:50:05;11.80;90.50
52481;DHT22;38393;52.404;13.532;2023-05-07T06:52:31;11.90;90.60
52481;DHT22;38393;52.404;13.532;2023-05-07T06:54:56;12.10;90.40
52481;DHT22;38393;52.404;13.532;2023-05-07T06:57:21;12.30;89.70
52481;DHT22;38393;52.404;13.532;2023-05-07T06:59:47;12.00;90.30
52481;DHT22;38393;52.404;13.532;2023-05-07T07:02:12;12.10;90.10
52481;DHT22;38393;52.404;13.532;2023-05-07T07:04:38;12.10;89.40
52481;DHT22;38393;52.404;13.532;2023-05-07T07:07:03;12.30;90.20
52481;DHT22;38393;52.404;13.532;2023-05-07T07:09:29;12.50;88.60
52481;DHT22;38393;52.404;13.532;2023-05-07T07:11:54;12.60;86.90
52481;DHT22;38393;52.404;13.532;2023-05-07T07:14:20;12.70;85.10
52481;DHT22;38393;52.404;13.532;2023-05-07T07:16:45;12.90;86.60
52481;DHT22;38393;52.404;13.532;2023-05-07T07:19:12;12.90;85.50
52481;DHT22;38393;52.404;13.532;2023-05-07T07:21:37;12.90;83.40
52481;DHT22;38393;52.404;13.532;2023-05-07T07:24:03;12.90;84.10
52481;DHT22;38393;52.404;13.532;2023-05-07T07:26:28;13.00;85.60
52481;DHT22;38393;52.404;13.532;2023-05-07T07:28:54;13.50;84.50
52481;DHT22;38393;52.404;13.532;2023-05-07T07:31:19;13.70;81.90
52481;DHT22;38393;52.404;13.532;2023-05-07T07:33:45;13.90;83.40
52481;DHT22;38393;52.404;13.532;2023-05-07T07:36:10;14.10;81.00
52481;DHT22;38393;52.404;13.532;2023-05-07T07:38:36;14.30;79.00
52481;DHT22;38393;52.404;13.532;2023-05-07T07:41:01;13.90;80.00
52481;DHT22;38393;52.404;13.532;2023-05-07T07:43:27;13.80;80.80
52481;DHT22;38393;52.404;13.532;2023-05-07T07:45:53;14.00;79.70
52481;DHT22;38393;52.404;13.532;2023-05-07T07:48:18;13.60;79.60
52481;DHT22;38393;52.404;13.532;2023-05-07T07:50:44;13.40;81.40
52481;DHT22;38393;52.404;13.532;2023-05-07T07:53:10;13.80;81.50
52481;DHT22;38393;52.404;13.532;2023-05-07T07:55:39;14.20;81.30
52481;DHT22;38393;52.404;13.532;2023-05-07T07:58:05;13.90;78.00
52481;DHT22;38393;52.404;13.532;2023-05-07T08:00:30;13.90;79.70
52481;DHT22;38393;52.404;13.532;2023-05-07T08:02:56;14.00;78.10
52481;DHT22;38393;52.404;13.532;2023-05-07T08:05:21;14.30;80.70
52481;DHT22;38393;52.404;13.532;2023-05-07T08:07:47;14.20;78.60
52481;DHT22;38393;52.404;13.532;2023-05-07T08:10:17;14.10;78.30
52481;DHT22;38393;52.404;13.532;2023-05-07T08:12:49;13.90;78.40
52481;DHT22;38393;52.404;13.532;2023-05-07T08:15:15;13.80;80.40
52481;DHT22;38393;52.404;13.532;2023-05-07T08:17:40;13.80;77.00
52481;DHT22;38393;52.404;13.532;2023-05-07T08:20:07;13.90;80.70
52481;DHT22;38393;52.404;13.532;2023-05-07T08:22:33;14.40;79.40
52481;DHT22;38393;52.404;13.532;2023-05-07T08:24:59;14.40;78.50
52481;DHT22;38393;52.404;13.532;2023-05-07T08:27:25;14.50;78.60
52481;DHT22;38393;52.404;13.532;2023-05-07T08:29:51;14.60;77.70
52481;DHT22;38393;52.404;13.532;2023-05-07T08:32:16;14.90;76.00
52481;DHT22;38393;52.404;13.532;2023-05-07T08:34:41;14.90;74.50
52481;DHT22;38393;52.404;13.532;2023-05-07T08:37:07;14.70;74.60
52481;DHT22;38393;52.404;13.532;2023-05-07T08:39:32;14.70;76.40
52481;DHT22;38393;52.404;13.532;2023-05-07T08:42:00;14.90;74.10
52481;DHT22;38393;52.404;13.532;2023-05-07T08:44:28;15.10;76.10
52481;DHT22;38393;52.404;13.532;2023-05-07T08:46:58;14.90;74.70
52481;DHT22;38393;52.404;13.532;2023-05-07T08:49:26;15.10;74.30
52481;DHT22;38393;52.404;13.532;2023-05-07T08:51:52;15.10;72.60
52481;DHT22;38393;52.404;13.532;2023-05-07T08:54:18;15.20;72.40
52481;DHT22;38393;52.404;13.532;2023-05-07T08:56:45;15.20;72.30
52481;DHT22;38393;52.404;13.532;2023-05-07T08:59:10;14.90;72.80
52481;DHT22;38393;52.404;13.532;2023-05-07T09:01:36;14.80;71.90
52481;DHT22;38393;52.404;13.532;2023-05-07T09:04:01;14.80;73.50
52481;DHT22;38393;52.404;13.532;2023-05-07T09:06:27;15.00;72.80
52481;DHT22;38393;52.404;13.532;2023-05-07T09:08:54;15.30;71.30
52481;DHT22;38393;52.404;13.532;2023-05-07T09:11:23;15.20;70.30
52481;DHT22;38393;52.404;13.532;2023-05-07T09:13:54;15.40;70.10
52481;DHT22;38393;52.404;13.532;2023-05-07T09:16:21;15.60;70.20
52481;DHT22;38393;52.404;13.532;2023-05-07T09:18:48;15.70;70.30
52481;DHT22;38393;52.404;13.532;2023-05-07T09:21:16;15.70;69.00
52481;DHT22;38393;52.404;13.532;2023-05-07T09:23:42;15.80;67.50
52481;DHT22;38393;52.404;13.532;2023-05-07T09:26:08;16.10;68.60
52481;DHT22;38393;52.404;13.532;2023-05-07T09:28:39;16.00;68.50
52481;DHT22;38393;52.404;13.532;2023-05-07T09:31:05;16.00;68.80
52481;DHT22;38393;52.404;13.532;2023-05-07T09:33:30;16.30;66.90
52481;DHT22;38393;52.404;13.532;2023-05-07T09:35:56;16.00;69.10
52481;DHT22;38393;52.404;13.532;2023-05-07T09:38:21;16.10;68.00
52481;DHT22;38393;52.404;13.532;2023-05-07T09:40:47;16.30;68.00
52481;DHT22;38393;52.404;13.532;2023-05-07T09:43:26;16.70;67.20
52481;DHT22;38393;52.404;13.532;2023-05-07T09:45:57;16.60;66.30
52481;DHT22;38393;52.404;13.532;2023-05-07T09:48:25;16.90;63.40
52481;DHT22;38393;52.404;13.532;2023-05-07T09:50:55;16.80;63.90
52481;DHT22;38393;52.404;13.532;2023-05-07T09:53:24;16.80;65.70
52481;DHT22;38393;52.404;13.532;2023-05-07T09:55:50;16.40;65.30
52481;DHT22;38393;52.404;13.532;2023-05-07T09:58:18;16.20;66.30
52481;DHT22;38393;52.404;13.532;2023-05-07T10:00:44;16.50;65.60
52481;DHT22;38393;52.404;13.532;2023-05-07T10:03:10;16.50;67.50
52481;DHT22;38393;52.404;13.532;2023-05-07T10:05:37;16.40;65.70
52481;DHT22;38393;52.404;13.532;2023-05-07T10:08:03;16.40;66.10
52481;DHT22;38393;52.404;13.532;2023-05-07T10:10:29;16.60;64.70
52481;DHT22;38393;52.404;13.532;2023-05-07T10:12:55;16.60;64.50
52481;DHT22;38393;52.404;13.532;2023-05-07T10:15:22;16.60;63.20
52481;DHT22;38393;52.404;13.532;2023-05-07T10:17:49;16.60;65.10
52481;DHT22;38393;52.404;13.532;2023-05-07T10:20:15;16.50;66.30
52481;DHT22;38393;52.404;13.532;2023-05-07T10:22:43;16.40;65.10
52481;DHT22;38393;52.404;13.532;2023-05-07T10:25:18;16.50;66.30
52481;DHT22;38393;52.404;13.532;2023-05-07T10:27:47;16.50;66.10
52481;DHT22;38393;52.404;13.532;2023-05-07T10:30:31;16.90;64.60
52481;DHT22;38393;52.404;13.532;2023-05-07T10:33:01;16.50;63.10
52481;DHT22;38393;52.404;13.532;2023-05-07T10:35:36;16.70;63.70
52481;DHT22;38393;52.404;13.532;2023-05-07T10:38:03;16.60;64.40
52481;DHT22;38393;52.404;13.532;2023-05-07T10:40:30;17.00;64.50
52481;DHT22;38393;52.404;13.532;2023-05-07T10:43:03;17.20;63.50
52481;DHT22;38393;52.404;13.532;2023-05-07T10:45:30;17.00;62.70
52481;DHT22;38393;52.404;13.532;2023-05-07T10:48:13;17.10;61.80
52481;DHT22;38393;52.404;13.532;2023-05-07T10:50:43;16.90;63.90
52481;DHT22;38393;52.404;13.532;2023-05-07T10:55:51;17.20;60.00
52481;DHT22;38393;52.404;13.532;2023-05-07T10:58:27;17.20;60.70
52481;DHT22;38393;52.404;13.532;2023-05-07T11:00:57;17.30;61.00
52481;DHT22;38393;52.404;13.532;2023-05-07T11:03:24;17.20;62.80
52481;DHT22;38393;52.404;13.532;2023-05-07T11:08:53;17.20;61.70
52481;DHT22;38393;52.404;13.532;2023-05-07T11:11:18;17.10;61.40
52481;DHT22;38393;52.404;13.532;2023-05-07T11:13:48;17.00;60.80
52481;DHT22;38393;52.404;13.532;2023-05-07T11:16:18;17.00;61.70
52481;DHT22;38393;52.404;13.532;2023-05-07T11:18:52;17.30;60.40
52481;DHT22;38393;52.404;13.532;2023-05-07T11:21:37;17.70;59.00
52481;DHT22;38393;52.404;13.532;2023-05-07T11:24:04;17.30;59.80
52481;DHT22;38393;52.404;13.532;2023-05-07T11:26:40;17.70;59.50
52481;DHT22;38393;52.404;13.532;2023-05-07T11:29:14;17.70;61.90
52481;DHT22;38393;52.404;13.532;2023-05-07T11:31:40;18.20;58.00
52481;DHT22;38393;52.404;13.532;2023-05-07T11:34:06;18.20;57.60
52481;DHT22;38393;52.404;13.532;2023-05-07T11:36:33;18.30;57.60
52481;DHT22;38393;52.404;13.532;2023-05-07T11:38:59;18.00;59.10
52481;DHT22;38393;52.404;13.532;2023-05-07T11:41:36;18.40;59.10
52481;DHT22;38393;52.404;13.532;2023-05-07T11:44:02;18.80;57.80
52481;DHT22;38393;52.404;13.532;2023-05-07T11:46:28;18.50;56.20
52481;DHT22;38393;52.404;13.532;2023-05-07T11:48:54;18.20;56.60
52481;DHT22;38393;52.404;13.532;2023-05-07T11:51:21;18.40;58.00
52481;DHT22;38393;52.404;13.532;2023-05-07T11:53:47;18.50;57.60
52481;DHT22;38393;52.404;13.532;2023-05-07T11:56:15;18.10;57.10
52481;DHT22;38393;52.404;13.532;2023-05-07T11:58:41;17.90;57.70
52481;DHT22;38393;52.404;13.532;2023-05-07T12:01:08;17.60;57.90
52481;DHT22;38393;52.404;13.532;2023-05-07T12:03:40;17.20;58.40
52481;DHT22;38393;52.404;13.532;2023-05-07T12:06:08;17.10;58.80
52481;DHT22;38393;52.404;13.532;2023-05-07T12:08:36;16.80;59.10
52481;DHT22;38393;52.404;13.532;2023-05-07T12:11:03;16.50;59.50
52481;DHT22;38393;52.404;13.532;2023-05-07T12:13:28;16.60;62.60
52481;DHT22;38393;52.404;13.532;2023-05-07T12:15:55;16.90;59.60
52481;DHT22;38393;52.404;13.532;2023-05-07T12:18:22;16.90;59.00
52481;DHT22;38393;52.404;13.532;2023-05-07T12:20:48;16.80;60.90
52481;DHT22;38393;52.404;13.532;2023-05-07T12:23:14;16.90;60.30
52481;DHT22;38393;52.404;13.532;2023-05-07T12:25:42;16.90;59.30
52481;DHT22;38393;52.404;13.532;2023-05-07T12:28:18;17.10;58.70
52481;DHT22;38393;52.404;13.532;2023-05-07T12:30:45;17.10;60.00
52481;DHT22;38393;52.404;13.532;2023-05-07T12:33:12;17.20;57.60
52481;DHT22;38393;52.404;13.532;2023-05-07T12:35:42;17.20;59.00
52481;DHT22;38393;52.404;13.532;2023-05-07T12:38:09;17.10;59.00
52481;DHT22;38393;52.404;13.532;2023-05-07T12:40:42;17.40;58.80
52481;DHT22;38393;52.404;13.532;2023-05-07T12:43:07;17.40;56.70
52481;DHT22;38393;52.404;13.532;2023-05-07T12:45:41;17.70;56.10
52481;DHT22;38393;52.404;13.532;2023-05-07T12:48:09;18.00;58.60
52481;DHT22;38393;52.404;13.532;2023-05-07T12:50:35;18.40;56.70
52481;DHT22;38393;52.404;13.532;2023-05-07T12:53:00;18.50;57.10
52481;DHT22;38393;52.404;13.532;2023-05-07T12:55:31;18.40;55.80
52481;DHT22;38393;52.404;13.532;2023-05-07T12:57:56;18.20;55.70
52481;DHT22;38393;52.404;13.532;2023-05-07T13:00:36;18.00;55.60
52481;DHT22;38393;52.404;13.532;2023-05-07T13:03:02;17.90;55.20
52481;DHT22;38393;52.404;13.532;2023-05-07T13:05:27;18.00;55.60
52481;DHT22;38393;52.404;13.532;2023-05-07T13:07:54;17.80;55.60
52481;DHT22;38393;52.404;13.532;2023-05-07T13:10:20;17.80;55.20
52481;DHT22;38393;52.404;13.532;2023-05-07T13:12:45;17.80;57.20
52481;DHT22;38393;52.404;13.532;2023-05-07T13:15:10;17.90;54.90
52481;DHT22;38393;52.404;13.532;2023-05-07T13:17:36;17.90;55.80
52481;DHT22;38393;52.404;13.532;2023-05-07T13:20:02;17.80;56.60
52481;DHT22;38393;52.404;13.532;2023-05-07T13:22:27;17.60;56.40
52481;DHT22;38393;52.404;13.532;2023-05-07T13:24:52;18.00;55.10
52481;DHT22;38393;52.404;13.532;2023-05-07T13:27:18;18.00;55.50
52481;DHT22;38393;52.404;13.532;2023-05-07T13:29:44;18.00;55.40
52481;DHT22;38393;52.404;13.532;2023-05-07T13:32:10;18.20;55.10
52481;DHT22;38393;52.404;13.532;2023-05-07T13:34:35;18.60;55.20
52481;DHT22;38393;52.404;13.532;2023-05-07T13:37:02;19.00;54.10
52481;DHT22;38393;52.404;13.532;2023-05-07T13:39:27;19.50;54.10
52481;DHT22;38393;52.404;13.532;2023-05-07T13:41:53;19.40;52.40
52481;DHT22;38393;52.404;13.532;2023-05-07T13:44:18;19.30;53.30
52481;DHT22;38393;52.404;13.532;2023-05-07T13:46:44;19.20;53.00
52481;DHT22;38393;52.404;13.532;2023-05-07T13:49:09;19.30;52.90
52481;DHT22;38393;52.404;13.532;2023-05-07T13:51:36;19.30;52.40
52481;DHT22;38393;52.404;13.532;2023-05-07T13:54:01;19.40;53.20
52481;DHT22;38393;52.404;13.532;2023-05-07T13:56:27;19.30;50.60
52481;DHT22;38393;52.404;13.532;2023-05-07T13:58:53;19.10;52.00
52481;DHT22;38393;52.404;13.532;2023-05-07T14:01:19;19.20;53.50
52481;DHT22;38393;52.404;13.532;2023-05-07T14:03:44;19.30;54.40
52481;DHT22;38393;52.404;13.532;2023-05-07T14:06:10;19.60;52.10
52481;DHT22;38393;52.404;13.532;2023-05-07T14:08:35;19.40;52.00
52481;DHT22;38393;52.404;13.532;2023-05-07T14:11:01;18.90;52.60
52481;DHT22;38393;52.404;13.532;2023-05-07T14:13:26;18.90;54.10
52481;DHT22;38393;52.404;13.532;2023-05-07T14:15:52;18.80;52.30
52481;DHT22;38393;52.404;13.532;2023-05-07T14:18:17;18.40;53.00
52481;DHT22;38393;52.404;13.532;2023-05-07T14:20:43;18.50;54.30
52481;DHT22;38393;52.404;13.532;2023-05-07T14:23:11;18.20;53.90
52481;DHT22;38393;52.404;13.532;2023-05-07T14:25:36;17.90;54.50
52481;DHT22;38393;52.404;13.532;2023-05-07T14:28:01;17.60;55.90
52481;DHT22;38393;52.404;13.532;2023-05-07T14:30:27;17.40;57.00
52481;DHT22;38393;52.404;13.532;2023-05-07T14:32:52;17.00;56.30
52481;DHT22;38393;52.404;13.532;2023-05-07T14:35:18;16.80;57.70
52481;DHT22;38393;52.404;13.532;2023-05-07T14:37:43;16.80;57.70
52481;DHT22;38393;52.404;13.532;2023-05-07T14:40:09;16.90;58.40
52481;DHT22;38393;52.404;13.532;2023-05-07T14:42:35;17.00;58.00
52481;DHT22;38393;52.404;13.532;2023-05-07T14:45:00;16.90;58.00
52481;DHT22;38393;52.404;13.532;2023-05-07T14:47:26;16.80;57.10
52481;DHT22;38393;52.404;13.532;2023-05-07T14:49:51;16.70;58.30
52481;DHT22;38393;52.404;13.532;2023-05-07T14:52:18;16.60;60.40
52481;DHT22;38393;52.404;13.532;2023-05-07T14:54:43;16.60;59.10
52481;DHT22;38393;52.404;13.532;2023-05-07T14:57:10;16.60;57.70
52481;DHT22;38393;52.404;13.532;2023-05-07T14:59:38;16.40;60.00
52481;DHT22;38393;52.404;13.532;2023-05-07T15:02:04;16.20;60.60
52481;DHT22;38393;52.404;13.532;2023-05-07T15:04:30;16.20;59.20
52481;DHT22;38393;52.404;13.532;2023-05-07T15:06:56;16.40;59.90
52481;DHT22;38393;52.404;13.532;2023-05-07T15:09:21;16.30;59.30
52481;DHT22;38393;52.404;13.532;2023-05-07T15:11:47;16.60;59.90
52481;DHT22;38393;52.404;13.532;2023-05-07T15:14:12;16.70;58.90
52481;DHT22;38393;52.404;13.532;2023-05-07T15:16:38;16.60;59.40
52481;DHT22;38393;52.404;13.532;2023-05-07T15:19:03;16.70;58.70
52481;DHT22;38393;52.404;13.532;2023-05-07T15:21:29;16.70;59.10
52481;DHT22;38393;52.404;13.532;2023-05-07T15:23:56;16.70;59.20